Time;durP1;ratioP1;P1;durP2;ratioP2;P2;SDS_P1;SDS_P2;PMS_P1;PMS_P2;Temp;Humidity;BMP_temperature;BMP_pressure;BME280_temperature;BME280_humidity;BME280_pressure;Samples;Min_cycle;Max_cycle;Signal;HPM_P1;HPM_P2
2021/12/10 00:01:47;;;;;;;114.88;32.28;;;1.90;79.40;;;;;;4142447;28;20461;-65
2021/12/10 00:03:50;;;;;;;110.85;32.50;;;1.90;79.50;;;;;;4143334;28;20053;-66
2021/12/10 00:06:18;;;;;;;104.90;29.30;;;1.90;79.60;;;;;;4108674;28;20030;-65
2021/12/10 00:08:19;;;;;;;100.53;30.95;;;1.90;79.60;;;;;;4138590;28;20513;-66
2021/12/10 00:10:23;;;;;;;103.90;31.80;;;1.90;79.60;;;;;;4142017;28;20088;-65
2021/12/10 00:12:30;;;;;;;111.30;32.78;;;1.80;79.50;;;;;;4132507;28;20025;-66
2021/12/10 00:14:32;;;;;;;110.72;33.55;;;1.90;79.60;;;;;;4142692;28;20030;-65
2021/12/10 00:16:33;;;;;;;104.07;30.38;;;1.90;79.60;;;;;;4143775;28;20025;-65
2021/12/10 00:18:36;;;;;;;96.43;28.73;;;1.80;79.50;;;;;;4141897;28;20386;-65
2021/12/10 00:20:37;;;;;;;108.65;31.65;;;1.90;79.70;;;;;;4141678;28;20415;-65
2021/12/10 00:22:49;;;;;;;95.20;28.65;;;1.80;79.60;;;;;;4129803;28;20022;-64
2021/12/10 00:24:50;;;;;;;95.72;28.13;;;1.90;79.70;;;;;;4139344;28;20084;-63
2021/12/10 00:26:51;;;;;;;104.85;32.70;;;1.90;79.70;;;;;;4139305;28;20785;-64
2021/12/10 00:29:00;;;;;;;107.30;33.60;;;1.90;79.60;;;;;;4114458;28;20175;-64
2021/12/10 00:31:44;;;;;;;101.38;31.00;;;1.90;79.60;;;;;;4143106;28;20033;-64
2021/12/10 00:33:54;;;;;;;88.18;28.83;;;1.90;79.60;;;;;;4140266;28;20084;-64
2021/12/10 00:35:56;;;;;;;102.80;29.45;;;1.90;79.50;;;;;;4143472;28;20160;-65
2021/12/10 00:37:56;;;;;;;87.38;27.45;;;1.90;79.50;;;;;;4117146;28;20037;-64
2021/12/10 00:39:59;;;;;;;93.88;28.50;;;1.90;79.50;;;;;;4141007;28;20041;-64
2021/12/10 00:42:00;;;;;;;86.80;29.38;;;1.90;79.50;;;;;;4142696;28;20029;-64
2021/12/10 00:44:01;;;;;;;95.78;30.10;;;2.00;79.50;;;;;;4143091;28;20030;-64
2021/12/10 00:46:01;;;;;;;99.03;30.25;;;2.00;79.50;;;;;;4128372;28;20045;-65
2021/12/10 00:48:03;;;;;;;104.70;30.30;;;2.00;79.40;;;;;;4138504;28;20034;-64
2021/12/10 00:50:05;;;;;;;101.50;30.17;;;2.00;79.40;;;;;;4141899;28;20486;-64
2021/12/10 00:52:06;;;;;;;106.75;31.83;;;2.00;79.30;;;;;;4136875;28;20014;-65
2021/12/10 00:54:07;;;;;;;96.88;30.27;;;2.00;79.30;;;;;;4124159;28;20133;-64
2021/12/10 00:56:08;;;;;;;103.78;31.23;;;2.00;79.30;;;;;;4141358;28;20029;-65
2021/12/10 00:58:09;;;;;;;89.75;28.05;;;2.00;79.20;;;;;;4142410;28;20405;-64
2021/12/10 01:00:16;;;;;;;85.72;29.00;;;2.00;79.30;;;;;;4142017;28;20084;-64
2021/12/10 01:02:20;;;;;;;97.13;31.27;;;2.00;79.30;;;;;;4140738;28;20042;-65
2021/12/10 01:04:27;;;;;;;90.93;29.40;;;2.00;79.30;;;;;;4137797;28;20401;-65
2021/12/10 01:06:28;;;;;;;94.72;30.80;;;2.00;79.20;;;;;;4139996;28;20037;-64
2021/12/10 01:08:29;;;;;;;86.10;28.25;;;2.00;79.20;;;;;;4143626;28;20510;-64
2021/12/10 01:10:34;;;;;;;93.60;30.60;;;2.00;79.10;;;;;;4140656;28;20121;-65
2021/12/10 01:12:38;;;;;;;94.05;29.55;;;2.00;79.10;;;;;;4142726;28;20036;-65
2021/12/10 01:15:19;;;;;;;91.40;28.02;;;2.00;79.10;;;;;;4142208;28;20030;-65
2021/12/10 01:24:32;;;;;;;;;;;2.10;79.10;;;;;;4142355;28;20117;-65
2021/12/10 01:28:41;;;;;;;93.55;29.40;;;2.00;78.90;;;;;;4142952;28;20512;-65
2021/12/10 01:30:42;;;;;;;89.78;29.83;;;2.00;78.90;;;;;;4132130;28;20042;-65
2021/12/10 01:32:47;;;;;;;91.32;30.10;;;2.00;78.90;;;;;;4141873;28;20109;-65
2021/12/10 01:34:47;;;;;;;103.85;32.05;;;2.00;79.60;;;;;;4142010;28;20026;-64
2021/12/10 01:36:48;;;;;;;86.18;30.65;;;2.00;79.60;;;;;;4142547;28;20482;-65
2021/12/10 01:38:50;;;;;;;105.88;31.33;;;2.00;79.00;;;;;;4140423;28;20033;-65
2021/12/10 01:40:56;;;;;;;100.60;30.23;;;2.00;79.00;;;;;;4141070;28;20034;-65
2021/12/10 01:43:05;;;;;;;92.07;28.98;;;1.90;79.00;;;;;;4144437;28;20113;-65
2021/12/10 01:45:19;;;;;;;86.07;28.05;;;1.90;79.10;;;;;;4145692;28;20030;-64
2021/12/10 01:47:24;;;;;;;88.50;26.85;;;1.90;79.20;;;;;;4127005;28;20037;-65
2021/12/10 01:49:25;;;;;;;92.45;29.35;;;1.90;79.20;;;;;;4144791;28;20030;-65
2021/12/10 01:51:28;;;;;;;102.72;29.40;;;2.00;79.20;;;;;;4139810;28;20093;-65
2021/12/10 01:53:30;;;;;;;89.90;27.80;;;2.00;79.20;;;;;;4141246;28;20026;-64
2021/12/10 01:55:33;;;;;;;79.75;27.30;;;2.00;79.20;;;;;;4141265;28;20112;-64
2021/12/10 01:57:35;;;;;;;95.25;30.45;;;2.00;79.20;;;;;;4143473;28;20030;-65
2021/12/10 01:59:36;;;;;;;101.78;29.25;;;2.00;79.20;;;;;;4143539;28;20034;-65
2021/12/10 02:01:49;;;;;;;97.75;30.65;;;2.00;79.10;;;;;;4130910;28;20402;-65
2021/12/10 02:03:51;;;;;;;92.65;27.55;;;2.00;79.10;;;;;;4144614;28;20037;-64
2021/12/10 02:05:51;;;;;;;97.30;29.92;;;2.00;79.20;;;;;;4142667;28;20029;-65
2021/12/10 02:07:54;;;;;;;95.80;29.63;;;2.00;79.10;;;;;;4144122;28;20052;-64
2021/12/10 02:09:55;;;;;;;94.47;29.45;;;1.90;79.10;;;;;;4142800;28;20026;-64
2021/12/10 02:11:55;;;;;;;87.40;28.40;;;2.00;79.10;;;;;;4144532;28;20494;-65
2021/12/10 02:13:57;;;;;;;90.35;30.10;;;2.00;79.10;;;;;;4112904;28;20026;-64
2021/12/10 02:15:57;;;;;;;96.28;30.38;;;2.00;79.10;;;;;;4143865;28;20034;-65
2021/12/10 02:17:59;;;;;;;95.15;29.40;;;2.00;79.10;;;;;;4126643;28;20026;-65
2021/12/10 02:20:09;;;;;;;85.75;27.52;;;2.00;79.10;;;;;;4143810;28;20393;-65
2021/12/10 02:22:09;;;;;;;81.82;28.08;;;2.00;79.10;;;;;;4146642;28;20117;-65
2021/12/10 02:24:10;;;;;;;89.63;29.90;;;2.00;79.10;;;;;;4144281;28;20038;-64
2021/12/10 02:26:13;;;;;;;83.35;27.65;;;2.00;79.10;;;;;;4139941;28;20037;-64
2021/12/10 02:28:14;;;;;;;92.22;29.42;;;2.00;79.10;;;;;;4142101;28;20472;-66
2021/12/10 02:30:15;;;;;;;80.55;29.25;;;2.00;79.10;;;;;;4136711;28;20038;-64
2021/12/10 02:32:15;;;;;;;90.60;29.38;;;2.00;79.10;;;;;;4145339;28;20030;-64
2021/12/10 02:34:16;;;;;;;83.97;26.80;;;2.00;79.10;;;;;;4143619;28;20114;-63
2021/12/10 02:36:17;;;;;;;92.13;29.88;;;2.00;79.10;;;;;;4143540;28;20153;-64
2021/12/10 02:38:19;;;;;;;88.38;29.40;;;1.90;79.10;;;;;;4145128;28;20030;-63
2021/12/10 02:40:20;;;;;;;74.97;28.98;;;2.00;79.10;;;;;;4139557;28;20108;-64
2021/12/10 02:42:21;;;;;;;83.10;28.83;;;2.00;79.10;;;;;;4145291;28;20038;-63
2021/12/10 02:44:24;;;;;;;80.43;28.52;;;1.90;79.10;;;;;;4142534;28;20038;-64
2021/12/10 02:46:25;;;;;;;90.60;29.15;;;1.90;79.20;;;;;;4143874;28;20041;-64
2021/12/10 02:48:26;;;;;;;96.15;30.67;;;1.90;79.20;;;;;;4144430;28;20064;-64
2021/12/10 02:50:28;;;;;;;90.60;29.25;;;1.90;79.20;;;;;;4144589;28;20606;-64
2021/12/10 02:52:29;;;;;;;75.57;26.27;;;1.90;79.30;;;;;;4120921;28;20113;-65
2021/12/10 02:54:34;;;;;;;83.95;28.40;;;1.90;79.30;;;;;;4124419;28;20549;-64
2021/12/10 02:56:35;;;;;;;87.70;28.83;;;1.90;79.30;;;;;;4143015;28;20054;-64
2021/12/10 02:58:36;;;;;;;95.28;28.70;;;1.90;79.30;;;;;;4144022;28;20034;-65
2021/12/10 03:00:48;;;;;;;85.53;28.52;;;1.90;79.40;;;;;;4142923;28;20087;-65
2021/12/10 03:02:49;;;;;;;90.80;29.30;;;1.90;79.30;;;;;;4143900;28;20022;-64
2021/12/10 03:04:50;;;;;;;85.45;26.35;;;1.90;79.30;;;;;;4128883;28;20289;-64
2021/12/10 03:06:53;;;;;;;87.80;27.90;;;1.90;79.40;;;;;;4147275;28;20459;-64
2021/12/10 03:08:54;;;;;;;;;;;1.90;79.40;;;;;;4127934;28;20057;-64
2021/12/10 03:10:54;;;;;;;88.70;28.10;;;1.90;79.60;;;;;;4140908;28;19913;-64
2021/12/10 03:12:55;;;;;;;76.35;26.23;;;1.90;79.50;;;;;;4144559;28;20022;-64
2021/12/10 03:14:56;;;;;;;80.65;27.55;;;1.90;79.40;;;;;;4144121;28;20385;-64
2021/12/10 03:16:58;;;;;;;86.45;26.92;;;1.90;79.40;;;;;;4127496;28;20035;-64
2021/12/10 03:18:58;;;;;;;85.68;27.42;;;1.90;79.40;;;;;;4140849;28;20037;-64
2021/12/10 03:20:59;;;;;;;82.00;28.02;;;1.90;79.40;;;;;;4132154;28;20060;-64
2021/12/10 03:23:00;;;;;;;73.10;26.77;;;1.90;79.40;;;;;;4147726;28;20112;-64
2021/12/10 03:25:01;;;;;;;80.88;27.10;;;1.90;79.40;;;;;;4142894;28;20057;-64
2021/12/10 03:27:03;;;;;;;87.05;28.30;;;2.00;79.40;;;;;;4141274;28;20081;-64
2021/12/10 03:29:04;;;;;;;81.38;26.20;;;1.90;79.30;;;;;;4142401;28;20030;-65
2021/12/10 03:31:05;;;;;;;86.82;30.20;;;1.90;79.30;;;;;;4125723;28;21967;-65
2021/12/10 03:33:06;;;;;;;83.63;27.23;;;1.90;79.30;;;;;;4144021;28;20037;-64
2021/12/10 03:35:13;;;;;;;86.90;29.58;;;1.90;79.40;;;;;;4130933;28;20100;-65
2021/12/10 03:37:17;;;;;;;89.50;29.10;;;1.90;79.40;;;;;;4144621;28;20022;-65
2021/12/10 03:39:21;;;;;;;79.65;28.05;;;1.90;79.50;;;;;;4142279;28;20026;-65
2021/12/10 03:41:22;;;;;;;78.60;27.98;;;1.90;79.50;;;;;;4125693;28;20025;-65
2021/12/10 03:43:23;;;;;;;92.78;28.80;;;1.90;79.60;;;;;;4128995;28;20030;-65
2021/12/10 03:45:29;;;;;;;84.05;28.40;;;1.90;79.60;;;;;;4142819;28;20022;-65
2021/12/10 03:47:30;;;;;;;81.18;25.90;;;1.90;79.70;;;;;;4146211;28;20135;-65
2021/12/10 03:49:31;;;;;;;82.07;27.40;;;1.80;79.70;;;;;;4141173;28;20026;-65
2021/12/10 03:51:32;;;;;;;97.57;34.53;;;1.90;79.70;;;;;;4140435;28;20034;-67
2021/12/10 03:53:32;;;;;;;82.55;27.38;;;1.90;79.70;;;;;;4137519;28;20057;-65
2021/12/10 03:55:33;;;;;;;73.68;25.92;;;1.90;79.70;;;;;;4137334;28;20110;-65
2021/12/10 03:57:34;;;;;;;79.65;25.83;;;1.80;79.60;;;;;;4125388;28;20049;-64
2021/12/10 03:59:36;;;;;;;79.93;27.77;;;1.90;79.70;;;;;;4143310;28;20517;-66
2021/12/10 04:01:42;;;;;;;81.93;26.00;;;1.90;79.60;;;;;;4143474;28;20029;-65
2021/12/10 04:03:43;;;;;;;96.95;28.63;;;1.90;79.60;;;;;;4141304;28;20385;-65
2021/12/10 04:05:45;;;;;;;79.28;26.30;;;2.00;79.60;;;;;;4132223;28;20022;-66
2021/12/10 04:07:45;;;;;;;80.25;27.25;;;2.00;79.50;;;;;;4144946;28;20474;-65
2021/12/10 04:09:46;;;;;;;77.05;25.20;;;2.00;79.40;;;;;;4141534;28;20030;-65
2021/12/10 04:11:47;;;;;;;75.95;26.65;;;2.00;79.40;;;;;;4143101;28;20022;-65
2021/12/10 04:13:48;;;;;;;69.65;24.23;;;2.00;79.40;;;;;;4144259;28;20101;-65
2021/12/10 04:15:49;;;;;;;82.90;27.30;;;2.00;79.40;;;;;;4127002;28;20034;-65
2021/12/10 04:17:51;;;;;;;78.60;26.67;;;2.00;79.50;;;;;;4112914;28;20118;-65
2021/12/10 04:19:52;;;;;;;82.82;26.88;;;2.00;79.40;;;;;;4138583;28;20486;-65
2021/12/10 04:21:56;;;;;;;76.55;25.50;;;1.90;79.40;;;;;;4143440;28;20034;-65
2021/12/10 04:23:56;;;;;;;80.40;27.45;;;1.90;79.40;;;;;;4146707;28;20096;-66
2021/12/10 04:25:57;;;;;;;77.28;26.83;;;1.90;79.40;;;;;;4140650;28;20030;-66
2021/12/10 04:27:59;;;;;;;80.70;28.63;;;1.90;79.40;;;;;;4136235;28;20032;-65
2021/12/10 04:30:00;;;;;;;72.18;25.50;;;1.90;79.40;;;;;;4125347;28;20031;-65
2021/12/10 04:32:01;;;;;;;76.40;26.33;;;1.90;79.60;;;;;;4139656;28;20254;-64
2021/12/10 04:34:02;;;;;;;86.75;27.63;;;1.90;79.70;;;;;;4143123;28;20029;-64
2021/12/10 04:36:03;;;;;;;84.38;27.13;;;1.90;79.70;;;;;;4140865;28;20049;-65
2021/12/10 04:38:03;;;;;;;76.80;26.65;;;1.80;79.80;;;;;;4143621;28;20049;-65
2021/12/10 04:40:05;;;;;;;73.90;25.52;;;1.90;80.00;;;;;;4138790;28;20497;-65
2021/12/10 04:42:06;;;;;;;91.13;27.23;;;1.80;80.00;;;;;;4141349;28;20522;-65
2021/12/10 04:44:07;;;;;;;84.53;27.40;;;1.80;80.00;;;;;;4142931;28;20030;-65
2021/12/10 04:46:08;;;;;;;81.18;26.15;;;1.90;80.10;;;;;;4142053;28;20056;-65
2021/12/10 04:48:08;;;;;;;79.75;26.35;;;1.90;80.20;;;;;;4141177;28;20512;-65
2021/12/10 04:50:09;;;;;;;77.88;26.15;;;1.90;80.20;;;;;;4140592;28;20065;-65
2021/12/10 04:52:10;;;;;;;72.15;24.38;;;1.90;80.20;;;;;;4139834;28;20025;-65
2021/12/10 04:54:11;;;;;;;68.93;23.90;;;1.90;80.20;;;;;;4139749;28;20034;-65
2021/12/10 04:56:13;;;;;;;80.13;24.70;;;1.90;80.20;;;;;;4140267;28;20195;-66
2021/12/10 04:58:14;;;;;;;76.47;24.98;;;1.90;80.20;;;;;;4141651;28;20018;-66
2021/12/10 05:00:19;;;;;;;70.07;22.77;;;1.90;80.20;;;;;;4140232;28;20613;-66
2021/12/10 05:02:19;;;;;;;82.78;26.42;;;1.90;80.20;;;;;;4128771;28;20026;-66
2021/12/10 05:04:20;;;;;;;68.30;24.58;;;1.90;80.20;;;;;;4140636;28;20041;-66
2021/12/10 05:06:21;;;;;;;68.50;24.23;;;1.90;80.10;;;;;;4125591;28;20128;-66
2021/12/10 05:08:21;;;;;;;71.38;24.95;;;2.00;80.10;;;;;;4141841;28;20030;-66
2021/12/10 05:10:22;;;;;;;71.00;24.75;;;2.00;80.20;;;;;;4121805;28;20062;-66
2021/12/10 05:12:23;;;;;;;67.15;23.58;;;2.00;80.10;;;;;;4137068;28;20038;-66
2021/12/10 05:14:24;;;;;;;69.57;25.35;;;2.00;80.10;;;;;;4106096;28;20110;-66
2021/12/10 05:16:26;;;;;;;78.43;25.70;;;2.00;80.10;;;;;;4140838;28;20112;-69
2021/12/10 05:18:29;;;;;;;82.25;25.80;;;2.00;80.10;;;;;;4142371;28;20189;-67
2021/12/10 05:20:35;;;;;;;67.70;23.30;;;2.00;80.00;;;;;;4122557;28;20387;-68
2021/12/10 05:22:36;;;;;;;63.42;23.48;;;2.00;80.10;;;;;;4138700;28;20035;-68
2021/12/10 05:24:36;;;;;;;74.38;24.38;;;2.00;80.00;;;;;;4140297;28;20065;-69
2021/12/10 05:26:37;;;;;;;72.10;26.40;;;2.00;80.00;;;;;;4122362;28;20040;-68
2021/12/10 05:28:38;;;;;;;68.85;24.80;;;2.00;80.00;;;;;;4140323;28;20033;-69
2021/12/10 05:30:38;;;;;;;84.28;25.70;;;2.00;80.10;;;;;;4128992;28;20030;-69
2021/12/10 05:32:40;;;;;;;71.15;24.83;;;2.00;80.10;;;;;;4138057;28;20029;-69
2021/12/10 05:34:40;;;;;;;70.18;25.10;;;2.00;80.20;;;;;;4121638;28;20606;-69
2021/12/10 05:36:41;;;;;;;76.28;25.48;;;2.00;80.20;;;;;;4125719;28;20034;-70
2021/12/10 05:38:42;;;;;;;77.10;26.05;;;2.00;80.30;;;;;;4124576;28;20030;-69
2021/12/10 05:40:44;;;;;;;69.95;24.42;;;2.00;80.30;;;;;;4135819;28;20032;-69
2021/12/10 05:42:45;;;;;;;75.55;26.05;;;2.00;80.30;;;;;;4138946;28;20401;-69
2021/12/10 05:44:45;;;;;;;77.70;25.08;;;2.00;80.30;;;;;;4140384;28;20034;-69
2021/12/10 05:46:46;;;;;;;76.22;26.17;;;2.00;80.40;;;;;;4133789;28;20033;-70
2021/12/10 05:48:47;;;;;;;88.15;26.65;;;2.00;80.30;;;;;;4140919;28;20109;-69
2021/12/10 05:50:48;;;;;;;73.03;24.05;;;2.00;80.40;;;;;;4126010;28;20581;-70
2021/12/10 05:52:48;;;;;;;72.97;24.80;;;2.00;80.40;;;;;;4131074;28;20076;-69
2021/12/10 05:54:52;;;;;;;79.65;25.00;;;2.00;80.40;;;;;;4136067;28;21090;-70
2021/12/10 05:56:52;;;;;;;71.80;25.50;;;2.00;80.40;;;;;;4141380;28;20127;-70
2021/12/10 05:58:53;;;;;;;73.70;25.67;;;2.00;80.40;;;;;;4132311;28;20426;-70
2021/12/10 06:00:58;;;;;;;68.70;26.10;;;2.00;80.40;;;;;;4141617;28;20042;-69
2021/12/10 06:02:59;;;;;;;74.20;25.30;;;2.00;80.40;;;;;;4139954;28;20584;-70
2021/12/10 06:05:00;;;;;;;77.65;26.33;;;2.00;80.50;;;;;;4140561;28;20026;-71
2021/12/10 06:07:01;;;;;;;71.38;24.35;;;2.00;80.50;;;;;;4141854;28;20387;-71
2021/12/10 06:09:04;;;;;;;71.45;25.77;;;1.90;80.50;;;;;;4125443;28;20068;-68
2021/12/10 06:11:06;;;;;;;73.00;24.38;;;1.90;80.50;;;;;;4138761;28;20026;-67
2021/12/10 06:13:07;;;;;;;75.22;26.08;;;2.00;80.60;;;;;;4143779;28;20076;-68
2021/12/10 06:15:09;;;;;;;74.15;24.65;;;2.00;80.60;;;;;;4137730;28;20113;-68
2021/12/10 06:17:10;;;;;;;77.25;25.80;;;2.00;80.50;;;;;;4137350;28;20026;-69
2021/12/10 06:19:11;;;;;;;75.15;25.92;;;2.00;80.50;;;;;;4140357;28;20109;-69
2021/12/10 06:21:11;;;;;;;80.40;24.98;;;2.00;80.40;;;;;;4122892;28;20030;-68
2021/12/10 06:23:12;;;;;;;70.50;23.35;;;2.00;80.40;;;;;;4123228;28;20026;-70
2021/12/10 06:25:13;;;;;;;71.63;24.13;;;2.00;80.40;;;;;;4140318;28;20088;-68
2021/12/10 06:27:14;;;;;;;65.20;25.27;;;2.00;80.40;;;;;;4127565;28;20497;-68
2021/12/10 06:29:14;;;;;;;71.82;26.58;;;1.90;80.30;;;;;;4142987;28;20405;-70
2021/12/10 06:31:17;;;;;;;78.30;26.02;;;2.00;80.50;;;;;;4141148;28;20049;-68
2021/12/10 06:33:19;;;;;;;71.03;25.55;;;1.90;80.50;;;;;;4144469;28;20496;-70
2021/12/10 06:35:20;;;;;;;77.97;26.60;;;1.90;80.60;;;;;;4143145;28;20100;-68
2021/12/10 06:37:21;;;;;;;73.30;26.35;;;1.90;80.60;;;;;;4124760;28;20306;-69
2021/12/10 06:39:22;;;;;;;82.25;27.27;;;1.90;80.60;;;;;;4141182;28;20030;-68
2021/12/10 06:41:23;;;;;;;90.40;28.83;;;1.90;80.60;;;;;;4142074;28;20446;-70
2021/12/10 06:43:24;;;;;;;75.03;25.60;;;2.00;80.80;;;;;;4143654;28;20066;-69
2021/12/10 06:45:26;;;;;;;79.75;25.48;;;1.90;80.80;;;;;;4141357;28;21804;-69
2021/12/10 06:47:27;;;;;;;81.27;27.70;;;1.90;80.80;;;;;;4126049;28;20562;-70
2021/12/10 06:49:27;;;;;;;76.50;24.88;;;1.80;80.60;;;;;;4141177;28;20041;-69
2021/12/10 06:51:28;;;;;;;76.78;25.60;;;1.80;80.60;;;;;;4134956;28;20026;-69
2021/12/10 06:53:29;;;;;;;78.30;26.25;;;1.80;80.50;;;;;;4138236;28;20410;-68
2021/12/10 06:55:30;;;;;;;78.40;25.50;;;1.80;80.60;;;;;;4140016;28;20044;-68
2021/12/10 06:57:31;;;;;;;77.25;25.20;;;1.80;80.60;;;;;;4130824;28;20045;-69
2021/12/10 06:59:32;;;;;;;77.55;26.05;;;1.80;80.60;;;;;;4136953;28;20095;-71
2021/12/10 07:01:35;;;;;;;67.43;25.90;;;1.80;80.60;;;;;;4124303;28;20323;-70
2021/12/10 07:03:35;;;;;;;76.22;26.45;;;1.80;80.50;;;;;;4127170;28;20035;-69
2021/12/10 07:05:36;;;;;;;80.05;26.35;;;1.80;80.60;;;;;;4142432;28;20549;-72
2021/12/10 07:07:38;;;;;;;82.68;26.48;;;1.80;80.70;;;;;;4144424;28;20057;-69
2021/12/10 07:09:39;;;;;;;77.03;26.05;;;1.80;80.70;;;;;;4094568;28;20054;-70
2021/12/10 07:11:40;;;;;;;71.07;25.70;;;1.80;80.70;;;;;;4141548;28;20029;-71
2021/12/10 07:13:42;;;;;;;68.38;24.40;;;1.80;80.70;;;;;;4144986;28;23411;-69
2021/12/10 07:15:44;;;;;;;72.45;25.42;;;1.80;80.70;;;;;;4138965;28;20153;-69
2021/12/10 07:17:48;;;;;;;75.75;25.92;;;1.70;80.60;;;;;;4126309;28;20136;-69
2021/12/10 07:19:49;;;;;;;84.40;25.92;;;1.80;80.80;;;;;;4144010;28;20029;-70
2021/12/10 07:21:49;;;;;;;79.88;25.38;;;1.70;80.80;;;;;;4125304;28;20026;-69
2021/12/10 07:23:50;;;;;;;71.57;24.75;;;1.70;80.80;;;;;;4126337;28;20037;-72
2021/12/10 07:25:51;;;;;;;72.40;25.33;;;1.70;80.80;;;;;;4141916;28;20030;-69
2021/12/10 07:27:52;;;;;;;73.78;24.58;;;1.80;80.90;;;;;;4142334;28;20049;-69
2021/12/10 07:29:55;;;;;;;73.40;25.17;;;1.70;80.80;;;;;;4141667;28;20523;-69
2021/12/10 07:31:56;;;;;;;75.13;25.60;;;1.70;80.90;;;;;;4141167;28;20033;-70
2021/12/10 07:33:57;;;;;;;80.45;25.35;;;1.70;81.10;;;;;;4143816;28;20520;-69
2021/12/10 07:35:58;;;;;;;72.05;24.85;;;1.70;81.20;;;;;;4142216;28;20026;-71
2021/12/10 07:37:59;;;;;;;71.25;24.48;;;1.70;81.20;;;;;;4139659;28;20029;-70
2021/12/10 07:39:59;;;;;;;72.15;24.67;;;1.70;81.30;;;;;;4141786;28;20105;-70
2021/12/10 07:42:00;;;;;;;77.63;24.13;;;1.70;81.30;;;;;;4144723;28;20112;-70
2021/12/10 07:44:02;;;;;;;72.30;23.80;;;1.70;81.30;;;;;;4141597;28;20161;-70
2021/12/10 07:46:04;;;;;;;63.50;22.40;;;1.70;81.30;;;;;;4121187;28;20039;-69
2021/12/10 07:48:08;;;;;;;64.70;21.27;;;1.70;81.30;;;;;;4138627;28;20038;-72
2021/12/10 07:50:12;;;;;;;62.17;22.15;;;1.70;81.20;;;;;;4118319;28;20522;-70
2021/12/10 07:52:20;;;;;;;76.97;22.83;;;1.70;81.20;;;;;;4137407;28;20030;-70
2021/12/10 07:54:22;;;;;;;68.53;23.50;;;1.70;81.20;;;;;;4138295;28;20033;-71
2021/12/10 07:56:23;;;;;;;60.50;21.42;;;1.80;81.20;;;;;;4138183;28;20049;-69
2021/12/10 07:58:23;;;;;;;63.30;23.23;;;1.70;81.20;;;;;;4126679;28;20034;-70
2021/12/10 08:00:25;;;;;;;70.18;23.08;;;1.70;81.30;;;;;;4141829;28;20045;-70
2021/12/10 08:02:26;;;;;;;66.80;23.75;;;1.80;81.20;;;;;;4112061;28;20319;-69
2021/12/10 08:04:28;;;;;;;58.45;21.55;;;1.80;81.20;;;;;;4141764;28;20064;-69
2021/12/10 08:06:30;;;;;;;71.80;23.55;;;1.80;81.20;;;;;;4144012;28;20030;-69
2021/12/10 08:08:30;;;;;;;69.38;23.05;;;1.80;81.20;;;;;;4142211;28;20053;-69
2021/12/10 08:10:31;;;;;;;69.43;22.75;;;1.90;81.30;;;;;;4139245;28;20041;-68
2021/12/10 08:12:32;;;;;;;68.78;22.95;;;1.80;81.20;;;;;;4142953;28;20033;-70
2021/12/10 08:14:32;;;;;;;70.68;24.10;;;1.80;81.20;;;;;;4144347;28;20084;-69
2021/12/10 08:16:33;;;;;;;64.97;22.15;;;1.90;81.40;;;;;;4143324;28;20032;-67
2021/12/10 08:18:34;;;;;;;67.97;24.17;;;1.90;81.40;;;;;;4141918;28;20034;-69
2021/12/10 08:20:35;;;;;;;65.20;22.00;;;1.90;81.30;;;;;;4139543;28;20088;-68
2021/12/10 08:22:36;;;;;;;63.88;22.58;;;2.00;81.40;;;;;;4141011;28;20041;-67
2021/12/10 08:24:36;;;;;;;67.90;22.75;;;1.90;81.30;;;;;;4138925;28;20489;-70
2021/12/10 08:26:37;;;;;;;69.05;23.48;;;1.90;81.30;;;;;;4143458;28;20030;-67
2021/12/10 08:28:39;;;;;;;61.63;22.95;;;2.00;81.40;;;;;;4143598;28;20044;-68
2021/12/10 08:30:40;;;;;;;56.38;21.65;;;2.00;81.30;;;;;;4127090;28;20442;-68
2021/12/10 08:32:42;;;;;;;61.17;21.23;;;2.00;81.40;;;;;;4143069;28;20025;-68
2021/12/10 08:34:43;;;;;;;63.33;21.85;;;2.00;81.30;;;;;;4129054;28;20034;-68
2021/12/10 08:36:44;;;;;;;62.42;21.65;;;2.10;81.40;;;;;;4136973;28;20033;-68
2021/12/10 08:38:45;;;;;;;63.63;21.55;;;2.10;81.40;;;;;;4129156;28;20023;-68
2021/12/10 08:40:48;;;;;;;61.95;22.63;;;2.10;81.40;;;;;;4125199;28;20076;-71
2021/12/10 08:42:49;;;;;;;66.18;24.05;;;2.10;81.30;;;;;;4132850;28;20060;-69
2021/12/10 08:44:51;;;;;;;74.18;24.27;;;2.20;81.30;;;;;;4126198;28;20947;-67
2021/12/10 08:46:52;;;;;;;67.82;22.42;;;2.20;81.30;;;;;;4121842;28;20046;-68
2021/12/10 08:48:52;;;;;;;67.50;23.83;;;2.20;81.30;;;;;;4142111;28;20036;-67
2021/12/10 08:50:54;;;;;;;66.38;22.38;;;2.20;81.30;;;;;;4140371;28;20121;-68
2021/12/10 08:52:58;;;;;;;55.40;21.85;;;2.20;81.20;;;;;;4138256;28;20056;-68
2021/12/10 08:54:59;;;;;;;68.20;23.58;;;2.20;81.20;;;;;;4136275;28;20026;-69
2021/12/10 08:57:00;;;;;;;66.50;23.38;;;2.30;81.30;;;;;;4137160;28;20449;-68
2021/12/10 08:59:01;;;;;;;56.50;21.75;;;2.30;81.30;;;;;;4118221;28;20034;-69
2021/12/10 09:01:14;;;;;;;55.00;21.00;;;2.30;81.20;;;;;;4141991;28;20088;-68
2021/12/10 09:03:16;;;;;;;57.50;20.27;;;2.30;81.20;;;;;;4114931;28;20030;-68
2021/12/10 09:05:17;;;;;;;61.78;21.17;;;2.30;81.20;;;;;;4123040;28;20038;-69
2021/12/10 09:07:21;;;;;;;63.28;20.98;;;2.30;81.20;;;;;;4141548;28;20034;-68
2021/12/10 09:09:22;;;;;;;62.35;22.35;;;2.40;81.20;;;;;;4138192;28;20032;-68
2021/12/10 09:11:24;;;;;;;59.38;22.15;;;2.40;81.20;;;;;;4139051;28;20518;-69
2021/12/10 09:13:25;;;;;;;69.88;22.50;;;2.40;81.20;;;;;;4118148;28;20031;-71
2021/12/10 09:15:27;;;;;;;57.42;20.73;;;2.40;81.30;;;;;;4115054;28;20439;-69
2021/12/10 09:17:30;;;;;;;59.33;21.38;;;2.40;81.30;;;;;;4136392;28;20037;-70
2021/12/10 09:19:31;;;;;;;64.85;21.75;;;2.40;81.20;;;;;;4137578;28;20026;-69
2021/12/10 09:21:33;;;;;;;56.55;20.55;;;2.40;81.30;;;;;;4120038;28;20038;-70
2021/12/10 09:23:34;;;;;;;59.92;20.98;;;2.40;81.30;;;;;;4101291;28;20057;-69
2021/12/10 09:25:35;;;;;;;51.80;19.88;;;2.50;81.40;;;;;;4120508;28;20534;-69
2021/12/10 09:27:36;;;;;;;62.97;20.02;;;2.50;81.40;;;;;;4138083;28;20286;-70
2021/12/10 09:29:38;;;;;;;65.18;20.52;;;2.50;81.30;;;;;;4137487;28;20034;-69
2021/12/10 09:31:42;;;;;;;52.03;19.42;;;2.50;81.20;;;;;;4122795;28;20105;-71
2021/12/10 09:33:43;;;;;;;;;;;2.60;81.30;;;;;;4125785;28;20042;-69
2021/12/10 09:35:43;;;;;;;64.97;20.63;;;2.60;81.20;;;;;;4140319;28;19909;-68
2021/12/10 09:37:45;;;;;;;62.30;19.67;;;2.60;81.10;;;;;;4138225;28;20888;-69
2021/12/10 09:39:49;;;;;;;63.00;22.17;;;2.60;80.90;;;;;;4138765;28;20085;-69
2021/12/10 09:41:51;;;;;;;58.13;20.30;;;2.60;80.80;;;;;;4138849;28;20037;-69
2021/12/10 09:43:52;;;;;;;54.67;19.38;;;2.60;80.90;;;;;;4140524;28;20109;-69
2021/12/10 09:45:52;;;;;;;59.80;21.67;;;2.60;80.80;;;;;;4123677;28;20545;-70
2021/12/10 09:47:53;;;;;;;54.83;19.83;;;2.70;80.80;;;;;;4139843;28;20034;-69
2021/12/10 09:49:55;;;;;;;54.53;19.48;;;2.60;80.80;;;;;;4124557;28;20034;-69
2021/12/10 09:52:01;;;;;;;63.60;21.50;;;2.70;80.90;;;;;;4135184;28;20022;-69
2021/12/10 09:54:06;;;;;;;60.42;19.77;;;2.70;80.80;;;;;;4137023;28;20034;-71
2021/12/10 09:56:07;;;;;;;58.55;20.27;;;2.70;80.70;;;;;;4082496;28;1146141;-70
2021/12/10 09:58:08;;;;;;;55.80;20.25;;;2.70;80.70;;;;;;4141264;28;20033;-69
2021/12/10 10:00:17;;;;;;;57.53;20.15;;;2.70;80.70;;;;;;4120387;28;20038;-70
2021/12/10 10:02:18;;;;;;;50.03;18.23;;;2.70;80.50;;;;;;4126092;28;20545;-70
2021/12/10 10:04:20;;;;;;;50.50;17.95;;;2.70;80.50;;;;;;4145338;28;20026;-71
2021/12/10 10:06:20;;;;;;;49.63;18.83;;;2.80;80.40;;;;;;4141508;28;20092;-69
2021/12/10 10:08:25;;;;;;;53.33;19.90;;;2.80;80.20;;;;;;4110620;28;20030;-71
2021/12/10 10:10:26;;;;;;;57.78;20.40;;;2.80;80.10;;;;;;4126135;28;20080;-70
2021/12/10 10:12:32;;;;;;;63.00;21.40;;;2.80;79.90;;;;;;4125579;28;20550;-69
2021/12/10 10:14:33;;;;;;;46.78;17.70;;;2.80;79.80;;;;;;4130411;28;20100;-68
2021/12/10 10:16:35;;;;;;;61.97;19.10;;;2.80;79.70;;;;;;4146241;28;20470;-69
2021/12/10 10:18:37;;;;;;;56.30;19.20;;;2.80;79.60;;;;;;4124723;28;20037;-70
2021/12/10 10:20:42;;;;;;;56.70;18.60;;;2.80;79.40;;;;;;4104910;28;20058;-70
2021/12/10 10:22:44;;;;;;;54.08;18.50;;;2.80;79.20;;;;;;4125035;28;20109;-69
2021/12/10 10:24:45;;;;;;;45.20;16.60;;;2.90;79.20;;;;;;4107705;28;20623;-69
2021/12/10 10:26:48;;;;;;;51.92;17.58;;;2.90;79.10;;;;;;4144028;28;20046;-69
2021/12/10 10:28:49;;;;;;;47.42;17.25;;;2.90;79.20;;;;;;4127269;28;20034;-69
2021/12/10 10:30:58;;;;;;;47.58;18.00;;;2.90;78.90;;;;;;4111693;28;20031;-69
2021/12/10 10:33:01;;;;;;;45.10;16.00;;;3.00;78.90;;;;;;4144088;28;20026;-70
2021/12/10 10:35:06;;;;;;;46.10;16.75;;;3.00;79.00;;;;;;4145570;28;20018;-69
2021/12/10 10:37:08;;;;;;;48.42;17.52;;;3.00;78.80;;;;;;4125512;28;20495;-70
2021/12/10 10:39:17;;;;;;;49.88;17.95;;;3.00;78.70;;;;;;4131916;28;20034;-69